sensor_id;sensor_type;location;lat;lon;timestamp;pressure;altitude;pressure_sealevel;temperature;humidity
17309;BME280;8772;42.804;23.426;2023-05-09T00:02:04;73694.78;;;-140.58;100.00
17309;BME280;8772;42.804;23.426;2023-05-09T00:04:32;73702.97;;;-140.58;100.00
17309;BME280;8772;42.804;23.426;2023-05-09T00:07:00;73702.97;;;-140.58;100.00
17309;BME280;8772;42.804;23.426;2023-05-09T00:09:27;73694.78;;;-140.58;100.00
17309;BME280;8772;42.804;23.426;2023-05-09T00:11:55;73709.13;;;-140.58;100.00
17309;BME280;8772;42.804;23.426;2023-05-09T00:14:22;73698.88;;;-140.58;100.00
17309;BME280;8772;42.804;23.426;2023-05-09T00:16:50;73692.72;;;-140.58;100.00
17309;BME280;8772;42.804;23.426;2023-05-09T00:19:18;73688.63;;;-140.58;100.00
17309;BME280;8772;42.804;23.426;2023-05-09T00:21:45;73680.41;;;-140.58;100.00
17309;BME280;8772;42.804;23.426;2023-05-09T00:24:12;73698.88;;;-140.58;100.00
17309;BME280;8772;42.804;23.426;2023-05-09T00:26:38;73686.56;;;-140.58;100.00
17309;BME280;8772;42.804;23.426;2023-05-09T00:29:07;73692.72;;;-140.58;100.00
17309;BME280;8772;42.804;23.426;2023-05-09T00:31:33;73678.38;;;-140.58;100.00
17309;BME280;8772;42.804;23.426;2023-05-09T00:34:00;73678.38;;;-140.58;100.00
17309;BME280;8772;42.804;23.426;2023-05-09T00:36:27;73682.47;;;-140.58;100.00
17309;BME280;8772;42.804;23.426;2023-05-09T00:38:54;73672.22;;;-140.58;100.00
17309;BME280;8772;42.804;23.426;2023-05-09T00:41:21;73670.16;;;-140.58;100.00
17309;BME280;8772;42.804;23.426;2023-05-09T00:43:48;73657.84;;;-140.58;100.00
17309;BME280;8772;42.804;23.426;2023-05-09T00:46:17;73666.06;;;-140.58;100.00
17309;BME280;8772;42.804;23.426;2023-05-09T00:48:44;73659.91;;;-140.58;100.00
17309;BME280;8772;42.804;23.426;2023-05-09T00:51:11;73664.00;;;-140.58;100.00
17309;BME280;8772;42.804;23.426;2023-05-09T00:53:39;73647.59;;;-140.58;100.00
17309;BME280;8772;42.804;23.426;2023-05-09T00:56:06;73651.69;;;-140.58;100.00
17309;BME280;8772;42.804;23.426;2023-05-09T00:58:33;73649.66;;;-140.58;100.00
17309;BME280;8772;42.804;23.426;2023-05-09T01:01:00;73641.44;;;-140.58;100.00
17309;BME280;8772;42.804;23.426;2023-05-09T01:07:02;73655.81;;;-140.58;100.00
17309;BME280;8772;42.804;23.426;2023-05-09T01:09:35;73645.53;;;-140.58;100.00
17309;BME280;8772;42.804;23.426;2023-05-09T01:12:12;73653.75;;;-140.58;100.00
17309;BME280;8772;42.804;23.426;2023-05-09T01:14:46;73645.53;;;-140.58;100.00
17309;BME280;8772;42.804;23.426;2023-05-09T01:17:25;73666.06;;;-140.58;100.00
17309;BME280;8772;42.804;23.426;2023-05-09T01:20:03;73674.25;;;-140.58;100.00
17309;BME280;8772;42.804;23.426;2023-05-09T01:22:42;73688.63;;;-140.58;100.00
17309;BME280;8772;42.804;23.426;2023-05-09T01:28:16;73709.13;;;-140.58;100.00
17309;BME280;8772;42.804;23.426;2023-05-09T01:30:46;73711.19;;;-140.58;100.00
17309;BME280;8772;42.804;23.426;2023-05-09T01:33:17;73735.81;;;-140.58;100.00
17309;BME280;8772;42.804;23.426;2023-05-09T01:35:49;73744.00;;;-140.58;100.00
17309;BME280;8772;42.804;23.426;2023-05-09T01:38:19;73752.22;;;-140.58;100.00
17309;BME280;8772;42.804;23.426;2023-05-09T01:40:49;73752.22;;;-140.58;100.00
17309;BME280;8772;42.804;23.426;2023-05-09T01:43:18;73764.53;;;-140.58;100.00
17309;BME280;8772;42.804;23.426;2023-05-09T01:45:48;73760.44;;;-140.58;100.00
17309;BME280;8772;42.804;23.426;2023-05-09T01:48:17;73764.53;;;-140.58;100.00
17309;BME280;8772;42.804;23.426;2023-05-09T01:50:46;73760.44;;;-140.58;100.00
17309;BME280;8772;42.804;23.426;2023-05-09T01:53:16;73772.72;;;-140.58;100.00
17309;BME280;8772;42.804;23.426;2023-05-09T01:55:44;73766.56;;;-140.58;100.00
17309;BME280;8772;42.804;23.426;2023-05-09T01:58:13;73768.63;;;-140.58;100.00
17309;BME280;8772;42.804;23.426;2023-05-09T02:00:41;73764.53;;;-140.58;100.00
17309;BME280;8772;42.804;23.426;2023-05-09T02:03:11;73768.63;;;-140.58;100.00
17309;BME280;8772;42.804;23.426;2023-05-09T02:05:38;73760.44;;;-140.58;100.00
17309;BME280;8772;42.804;23.426;2023-05-09T02:08:07;73756.31;;;-140.58;100.00
17309;BME280;8772;42.804;23.426;2023-05-09T02:10:34;73764.53;;;-140.58;100.00
17309;BME280;8772;42.804;23.426;2023-05-09T02:13:02;73760.44;;;-140.58;100.00
17309;BME280;8772;42.804;23.426;2023-05-09T02:15:29;73762.47;;;-140.58;100.00
17309;BME280;8772;42.804;23.426;2023-05-09T02:17:57;73744.00;;;-140.58;100.00
17309;BME280;8772;42.804;23.426;2023-05-09T02:20:25;73752.22;;;-140.58;100.00
17309;BME280;8772;42.804;23.426;2023-05-09T02:22:52;73741.97;;;-140.58;100.00
17309;BME280;8772;42.804;23.426;2023-05-09T02:25:19;73744.00;;;-140.58;100.00
17309;BME280;8772;42.804;23.426;2023-05-09T02:27:46;73739.91;;;-140.58;100.00
17309;BME280;8772;42.804;23.426;2023-05-09T02:30:18;73748.13;;;-140.58;100.00
17309;BME280;8772;42.804;23.426;2023-05-09T02:32:51;73735.81;;;-140.58;100.00
17309;BME280;8772;42.804;23.426;2023-05-09T02:35:20;73744.00;;;-140.58;100.00
17309;BME280;8772;42.804;23.426;2023-05-09T02:37:50;73750.16;;;-140.58;100.00
17309;BME280;8772;42.804;23.426;2023-05-09T02:40:17;73746.06;;;-140.58;100.00
17309;BME280;8772;42.804;23.426;2023-05-09T02:42:44;73746.06;;;-140.58;100.00
17309;BME280;8772;42.804;23.426;2023-05-09T02:45:11;73770.69;;;-140.58;100.00
17309;BME280;8772;42.804;23.426;2023-05-09T02:47:38;73774.78;;;-140.58;100.00
17309;BME280;8772;42.804;23.426;2023-05-09T02:50:06;73766.56;;;-140.58;100.00
17309;BME280;8772;42.804;23.426;2023-05-09T02:52:33;73768.63;;;-140.58;100.00
17309;BME280;8772;42.804;23.426;2023-05-09T02:55:01;73756.31;;;-140.58;100.00
17309;BME280;8772;42.804;23.426;2023-05-09T02:57:28;73766.56;;;-140.58;100.00
17309;BME280;8772;42.804;23.426;2023-05-09T02:59:55;73754.28;;;-140.58;100.00
17309;BME280;8772;42.804;23.426;2023-05-09T03:02:22;73758.38;;;-140.58;100.00
17309;BME280;8772;42.804;23.426;2023-05-09T03:04:50;73760.44;;;-140.58;100.00
17309;BME280;8772;42.804;23.426;2023-05-09T03:07:17;73764.53;;;-140.58;100.00
17309;BME280;8772;42.804;23.426;2023-05-09T03:09:44;73756.31;;;-140.58;100.00
17309;BME280;8772;42.804;23.426;2023-05-09T03:12:12;73768.63;;;-140.58;100.00
17309;BME280;8772;42.804;23.426;2023-05-09T03:14:39;73772.72;;;-140.58;100.00
17309;BME280;8772;42.804;23.426;2023-05-09T03:17:06;73785.03;;;-140.58;100.00
17309;BME280;8772;42.804;23.426;2023-05-09T03:19:33;73768.63;;;-140.58;100.00
17309;BME280;8772;42.804;23.426;2023-05-09T03:22:00;73772.72;;;-140.58;100.00
17309;BME280;8772;42.804;23.426;2023-05-09T03:24:26;73760.44;;;-140.58;100.00
17309;BME280;8772;42.804;23.426;2023-05-09T03:26:53;73772.72;;;-140.58;100.00
17309;BME280;8772;42.804;23.426;2023-05-09T03:29:22;73772.72;;;-140.58;100.00
17309;BME280;8772;42.804;23.426;2023-05-09T03:31:48;73780.94;;;-140.58;100.00
17309;BME280;8772;42.804;23.426;2023-05-09T03:34:15;73789.16;;;-140.58;100.00
17309;BME280;8772;42.804;23.426;2023-05-09T03:36:42;73780.94;;;-140.58;100.00
17309;BME280;8772;42.804;23.426;2023-05-09T03:39:09;73789.16;;;-140.58;100.00
17309;BME280;8772;42.804;23.426;2023-05-09T03:41:37;73805.56;;;-140.58;100.00
17309;BME280;8772;42.804;23.426;2023-05-09T03:44:04;73787.09;;;-140.58;100.00
17309;BME280;8772;42.804;23.426;2023-05-09T03:46:32;73785.03;;;-140.58;100.00
17309;BME280;8772;42.804;23.426;2023-05-09T03:48:59;73797.34;;;-140.58;100.00
17309;BME280;8772;42.804;23.426;2023-05-09T03:51:26;73785.03;;;-140.58;100.00
17309;BME280;8772;42.804;23.426;2023-05-09T03:53:53;73768.63;;;-140.58;100.00
17309;BME280;8772;42.804;23.426;2023-05-09T03:56:20;73762.47;;;-140.58;100.00
17309;BME280;8772;42.804;23.426;2023-05-09T03:58:47;73768.63;;;-140.58;100.00
17309;BME280;8772;42.804;23.426;2023-05-09T04:01:14;73778.88;;;-140.58;100.00
17309;BME280;8772;42.804;23.426;2023-05-09T04:03:43;73789.16;;;-140.58;100.00
17309;BME280;8772;42.804;23.426;2023-05-09T04:06:09;73799.41;;;-140.58;100.00
17309;BME280;8772;42.804;23.426;2023-05-09T04:08:36;73774.78;;;-140.58;100.00
17309;BME280;8772;42.804;23.426;2023-05-09T04:11:03;73801.44;;;-140.58;100.00
17309;BME280;8772;42.804;23.426;2023-05-09T04:13:30;73791.19;;;-140.58;100.00
17309;BME280;8772;42.804;23.426;2023-05-09T04:15:57;73793.25;;;-140.58;100.00
17309;BME280;8772;42.804;23.426;2023-05-09T04:18:24;73789.16;;;-140.58;100.00
17309;BME280;8772;42.804;23.426;2023-05-09T04:20:52;73783.00;;;-140.58;100.00
17309;BME280;8772;42.804;23.426;2023-05-09T04:23:19;73770.69;;;-140.58;100.00
17309;BME280;8772;42.804;23.426;2023-05-09T04:25:46;73756.31;;;-140.58;100.00
17309;BME280;8772;42.804;23.426;2023-05-09T04:28:15;73756.31;;;-140.58;100.00
17309;BME280;8772;42.804;23.426;2023-05-09T04:30:42;73772.72;;;-140.58;100.00
17309;BME280;8772;42.804;23.426;2023-05-09T04:33:09;73760.44;;;-140.58;100.00
17309;BME280;8772;42.804;23.426;2023-05-09T04:35:37;73754.28;;;-140.58;100.00
17309;BME280;8772;42.804;23.426;2023-05-09T04:38:05;73748.13;;;-140.58;100.00
17309;BME280;8772;42.804;23.426;2023-05-09T04:40:32;73756.31;;;-140.58;100.00
17309;BME280;8772;42.804;23.426;2023-05-09T04:42:59;73758.38;;;-140.58;100.00
17309;BME280;8772;42.804;23.426;2023-05-09T04:45:26;73752.22;;;-140.58;100.00
17309;BME280;8772;42.804;23.426;2023-05-09T04:47:53;73746.06;;;-140.58;100.00
17309;BME280;8772;42.804;23.426;2023-05-09T04:50:20;73735.81;;;-140.58;100.00
17309;BME280;8772;42.804;23.426;2023-05-09T04:52:47;73717.34;;;-140.58;100.00
17309;BME280;8772;42.804;23.426;2023-05-09T04:55:15;73735.81;;;-140.58;100.00
17309;BME280;8772;42.804;23.426;2023-05-09T04:57:42;73725.56;;;-140.58;99.05
17309;BME280;8772;42.804;23.426;2023-05-09T05:00:09;73725.56;;;-140.58;98.97
17309;BME280;8772;42.804;23.426;2023-05-09T05:02:37;73727.59;;;-140.58;100.00
17309;BME280;8772;42.804;23.426;2023-05-09T05:05:04;73731.72;;;-140.58;100.00
17309;BME280;8772;42.804;23.426;2023-05-09T05:07:32;73707.09;;;-140.58;98.68
17309;BME280;8772;42.804;23.426;2023-05-09T05:09:58;73702.97;;;-140.58;98.71
17309;BME280;8772;42.804;23.426;2023-05-09T05:12:26;73711.19;;;-140.58;98.03
17309;BME280;8772;42.804;23.426;2023-05-09T05:14:53;73707.09;;;-140.58;96.17
17309;BME280;8772;42.804;23.426;2023-05-09T05:17:20;73715.28;;;-140.58;97.48
17309;BME280;8772;42.804;23.426;2023-05-09T05:19:49;73723.50;;;-140.58;96.25
17309;BME280;8772;42.804;23.426;2023-05-09T05:22:15;73698.88;;;-140.58;96.35
17309;BME280;8772;42.804;23.426;2023-05-09T05:24:42;73686.56;;;-140.58;95.45
17309;BME280;8772;42.804;23.426;2023-05-09T05:27:09;73674.25;;;-140.58;92.82
17309;BME280;8772;42.804;23.426;2023-05-09T05:29:38;73664.00;;;-140.58;91.93
17309;BME280;8772;42.804;23.426;2023-05-09T05:32:05;73684.53;;;-140.58;93.69
17309;BME280;8772;42.804;23.426;2023-05-09T05:34:31;73678.38;;;-140.58;93.34
17309;BME280;8772;42.804;23.426;2023-05-09T05:36:58;73690.69;;;-140.58;92.04
17309;BME280;8772;42.804;23.426;2023-05-09T05:39:25;73698.88;;;-140.58;91.57
17309;BME280;8772;42.804;23.426;2023-05-09T05:41:52;73715.28;;;-140.58;92.93
17309;BME280;8772;42.804;23.426;2023-05-09T05:44:19;73723.50;;;-140.58;94.23
17309;BME280;8772;42.804;23.426;2023-05-09T05:46:47;73723.50;;;-140.58;96.69
17309;BME280;8772;42.804;23.426;2023-05-09T05:49:14;73715.28;;;-140.58;95.62
17309;BME280;8772;42.804;23.426;2023-05-09T05:51:41;73690.69;;;-140.58;94.63
17309;BME280;8772;42.804;23.426;2023-05-09T05:54:07;73694.78;;;-140.58;93.83
17309;BME280;8772;42.804;23.426;2023-05-09T05:56:35;73678.38;;;-140.58;95.88
17309;BME280;8772;42.804;23.426;2023-05-09T05:59:02;73661.97;;;-140.58;92.50
17309;BME280;8772;42.804;23.426;2023-05-09T06:01:29;73666.06;;;-140.58;91.08
17309;BME280;8772;42.804;23.426;2023-05-09T06:03:57;73649.66;;;-140.58;87.76
17309;BME280;8772;42.804;23.426;2023-05-09T06:06:25;73633.25;;;-140.58;87.45
17309;BME280;8772;42.804;23.426;2023-05-09T06:08:52;73608.63;;;-140.58;86.86
17309;BME280;8772;42.804;23.426;2023-05-09T06:11:19;73610.69;;;-140.58;87.50
17309;BME280;8772;42.804;23.426;2023-05-09T06:13:46;73588.09;;;-140.58;83.76
17309;BME280;8772;42.804;23.426;2023-05-09T06:16:13;73610.69;;;-140.58;83.45
17309;BME280;8772;42.804;23.426;2023-05-09T06:18:40;73612.72;;;-140.58;84.54
17309;BME280;8772;42.804;23.426;2023-05-09T06:21:08;73627.09;;;-140.58;83.13
17309;BME280;8772;42.804;23.426;2023-05-09T06:23:35;73604.53;;;-140.58;84.86
17309;BME280;8772;42.804;23.426;2023-05-09T06:26:02;73565.53;;;-140.58;83.52
17309;BME280;8772;42.804;23.426;2023-05-09T06:28:29;73561.44;;;-140.58;83.09
17309;BME280;8772;42.804;23.426;2023-05-09T06:30:56;73551.19;;;-140.58;79.23
17309;BME280;8772;42.804;23.426;2023-05-09T06:33:23;73549.13;;;-140.58;81.72
17309;BME280;8772;42.804;23.426;2023-05-09T06:35:50;73551.19;;;-140.58;80.09
17309;BME280;8772;42.804;23.426;2023-05-09T06:38:18;73530.66;;;-140.58;80.81
17309;BME280;8772;42.804;23.426;2023-05-09T06:40:45;73524.53;;;-140.58;77.57
17309;BME280;8772;42.804;23.426;2023-05-09T06:43:12;73518.38;;;-140.58;79.36
17309;BME280;8772;42.804;23.426;2023-05-09T06:45:38;73534.78;;;-140.58;76.58
17309;BME280;8772;42.804;23.426;2023-05-09T06:48:05;73542.97;;;-140.58;76.61
17309;BME280;8772;42.804;23.426;2023-05-09T06:50:32;73534.78;;;-140.58;75.85
17309;BME280;8772;42.804;23.426;2023-05-09T06:52:59;73522.47;;;-140.58;77.27
17309;BME280;8772;42.804;23.426;2023-05-09T06:55:28;73538.88;;;-140.58;77.36
17309;BME280;8772;42.804;23.426;2023-05-09T06:57:54;73551.19;;;-140.58;80.21
17309;BME280;8772;42.804;23.426;2023-05-09T07:00:22;73555.28;;;-140.58;76.46
17309;BME280;8772;42.804;23.426;2023-05-09T07:02:48;73536.81;;;-140.58;76.97
17309;BME280;8772;42.804;23.426;2023-05-09T07:05:15;73542.97;;;-140.58;76.79
17309;BME280;8772;42.804;23.426;2023-05-09T07:07:42;73559.38;;;-140.58;75.53
17309;BME280;8772;42.804;23.426;2023-05-09T07:10:10;73555.28;;;-140.58;76.69
17309;BME280;8772;42.804;23.426;2023-05-09T07:12:38;73545.03;;;-140.58;77.47
17309;BME280;8772;42.804;23.426;2023-05-09T07:15:07;73510.16;;;-140.58;76.21
17309;BME280;8772;42.804;23.426;2023-05-09T07:17:34;73497.84;;;-140.58;74.83
17309;BME280;8772;42.804;23.426;2023-05-09T07:20:00;73530.66;;;-140.58;73.97
17309;BME280;8772;42.804;23.426;2023-05-09T07:22:29;73536.81;;;-140.58;75.88
17309;BME280;8772;42.804;23.426;2023-05-09T07:24:56;73508.09;;;-140.58;73.34
17309;BME280;8772;42.804;23.426;2023-05-09T07:27:23;73547.09;;;-140.58;75.20
17309;BME280;8772;42.804;23.426;2023-05-09T07:29:51;73567.59;;;-140.58;76.45
17309;BME280;8772;42.804;23.426;2023-05-09T07:32:18;73563.50;;;-140.58;74.67
17309;BME280;8772;42.804;23.426;2023-05-09T07:34:45;73592.22;;;-140.58;76.05
17309;BME280;8772;42.804;23.426;2023-05-09T07:37:12;73596.31;;;-140.58;76.79
17309;BME280;8772;42.804;23.426;2023-05-09T07:39:39;73581.97;;;-140.58;74.96
17309;BME280;8772;42.804;23.426;2023-05-09T07:42:06;73586.06;;;-140.58;78.02
17309;BME280;8772;42.804;23.426;2023-05-09T07:44:33;73588.09;;;-140.58;76.70
17309;BME280;8772;42.804;23.426;2023-05-09T07:47:02;73573.75;;;-140.58;76.21
17309;BME280;8772;42.804;23.426;2023-05-09T07:49:29;73575.81;;;-140.58;75.87
17309;BME280;8772;42.804;23.426;2023-05-09T07:51:56;73598.38;;;-140.58;76.40
17309;BME280;8772;42.804;23.426;2023-05-09T07:54:23;73616.81;;;-140.58;75.84
17309;BME280;8772;42.804;23.426;2023-05-09T07:56:50;73629.13;;;-140.58;77.54
17309;BME280;8772;42.804;23.426;2023-05-09T07:59:17;73625.03;;;-140.58;76.51
17309;BME280;8772;42.804;23.426;2023-05-09T08:01:44;73633.25;;;-140.58;75.69
17309;BME280;8772;42.804;23.426;2023-05-09T08:04:12;73641.44;;;-140.58;75.80
17309;BME280;8772;42.804;23.426;2023-05-09T08:06:39;73631.19;;;-140.58;76.89
17309;BME280;8772;42.804;23.426;2023-05-09T08:09:06;73625.03;;;-140.58;77.32
17309;BME280;8772;42.804;23.426;2023-05-09T08:11:34;73629.13;;;-140.58;76.07
17309;BME280;8772;42.804;23.426;2023-05-09T08:14:01;73653.75;;;-140.58;76.96
17309;BME280;8772;42.804;23.426;2023-05-09T08:16:28;73666.06;;;-140.58;78.05
17309;BME280;8772;42.804;23.426;2023-05-09T08:18:55;73686.56;;;-140.58;77.26
17309;BME280;8772;42.804;23.426;2023-05-09T08:21:23;73649.66;;;-140.58;77.24
17309;BME280;8772;42.804;23.426;2023-05-09T08:23:51;73653.75;;;-140.58;77.47
17309;BME280;8772;42.804;23.426;2023-05-09T08:26:18;73659.91;;;-140.58;76.98
17309;BME280;8772;42.804;23.426;2023-05-09T08:28:47;73674.25;;;-140.58;79.95
17309;BME280;8772;42.804;23.426;2023-05-09T08:31:14;73668.09;;;-140.58;78.63
17309;BME280;8772;42.804;23.426;2023-05-09T08:33:41;73649.66;;;-140.58;78.28
17309;BME280;8772;42.804;23.426;2023-05-09T08:36:08;73635.28;;;-140.58;78.54
17309;BME280;8772;42.804;23.426;2023-05-09T08:38:36;73622.97;;;-140.58;77.86
17309;BME280;8772;42.804;23.426;2023-05-09T08:41:05;73666.06;;;-140.58;76.43
17309;BME280;8772;42.804;23.426;2023-05-09T08:43:32;73674.25;;;-140.58;77.96
17309;BME280;8772;42.804;23.426;2023-05-09T08:46:02;73666.06;;;-140.58;78.19
17309;BME280;8772;42.804;23.426;2023-05-09T08:48:33;73641.44;;;-140.58;77.76
17309;BME280;8772;42.804;23.426;2023-05-09T08:51:02;73645.53;;;-140.58;77.70
17309;BME280;8772;42.804;23.426;2023-05-09T08:53:29;73649.66;;;-140.58;76.58
17309;BME280;8772;42.804;23.426;2023-05-09T08:55:58;73635.28;;;-140.58;76.33
17309;BME280;8772;42.804;23.426;2023-05-09T08:58:26;73608.63;;;-140.58;77.92
17309;BME280;8772;42.804;23.426;2023-05-09T09:00:53;73602.47;;;-140.58;76.16
17309;BME280;8772;42.804;23.426;2023-05-09T09:03:22;73575.81;;;-140.58;74.30
17309;BME280;8772;42.804;23.426;2023-05-09T09:05:50;73549.13;;;-140.58;74.75
17309;BME280;8772;42.804;23.426;2023-05-09T09:08:17;73575.81;;;-140.58;73.36
17309;BME280;8772;42.804;23.426;2023-05-09T09:10:45;73579.91;;;-140.58;73.80
17309;BME280;8772;42.804;23.426;2023-05-09T09:13:16;73584.00;;;-140.58;73.39
17309;BME280;8772;42.804;23.426;2023-05-09T09:15:45;73567.59;;;-140.58;73.31
17309;BME280;8772;42.804;23.426;2023-05-09T09:18:16;73547.09;;;-140.58;72.53
17309;BME280;8772;42.804;23.426;2023-05-09T09:20:49;73518.38;;;-140.58;73.11
17309;BME280;8772;42.804;23.426;2023-05-09T09:23:17;73493.75;;;-140.58;71.86
17309;BME280;8772;42.804;23.426;2023-05-09T09:25:45;73460.94;;;-140.58;71.90
17309;BME280;8772;42.804;23.426;2023-05-09T09:28:14;73450.66;;;-140.58;74.25
17309;BME280;8772;42.804;23.426;2023-05-09T09:30:46;73440.41;;;-140.58;67.44
17309;BME280;8772;42.804;23.426;2023-05-09T09:33:18;73391.19;;;-140.58;68.00
17309;BME280;8772;42.804;23.426;2023-05-09T09:35:47;73395.28;;;-140.58;67.50
17309;BME280;8772;42.804;23.426;2023-05-09T09:38:16;73409.66;;;-140.58;66.38
17309;BME280;8772;42.804;23.426;2023-05-09T09:40:53;73382.97;;;-140.58;67.30
17309;BME280;8772;42.804;23.426;2023-05-09T09:43:27;73372.72;;;-140.58;66.53
17309;BME280;8772;42.804;23.426;2023-05-09T09:45:54;73397.34;;;-140.58;62.89
17309;BME280;8772;42.804;23.426;2023-05-09T09:48:25;73411.69;;;-140.58;64.10
17309;BME280;8772;42.804;23.426;2023-05-09T09:50:53;73407.59;;;-140.58;64.59
17309;BME280;8772;42.804;23.426;2023-05-09T09:53:21;73399.41;;;-140.58;65.00
17309;BME280;8772;42.804;23.426;2023-05-09T09:55:49;73385.03;;;-140.58;63.96
17309;BME280;8772;42.804;23.426;2023-05-09T09:58:17;73378.88;;;-140.58;66.29
17309;BME280;8772;42.804;23.426;2023-05-09T10:01:03;73380.94;;;-140.58;62.70
17309;BME280;8772;42.804;23.426;2023-05-09T10:03:34;73395.28;;;-140.58;63.02
17309;BME280;8772;42.804;23.426;2023-05-09T10:06:01;73387.09;;;-140.58;62.75
17309;BME280;8772;42.804;23.426;2023-05-09T10:08:28;73391.19;;;-140.58;63.92
17309;BME280;8772;42.804;23.426;2023-05-09T10:10:55;73341.97;;;-140.58;62.20
17309;BME280;8772;42.804;23.426;2023-05-09T10:13:24;73311.19;;;-140.58;62.21
17309;BME280;8772;42.804;23.426;2023-05-09T10:15:53;73296.84;;;-140.58;61.36
17309;BME280;8772;42.804;23.426;2023-05-09T10:18:23;73255.81;;;-140.58;61.52
17309;BME280;8772;42.804;23.426;2023-05-09T10:20:51;73245.56;;;-140.58;60.07
17309;BME280;8772;42.804;23.426;2023-05-09T10:23:19;73210.69;;;-140.58;60.92
17309;BME280;8772;42.804;23.426;2023-05-09T10:25:51;73206.59;;;-140.58;57.04
17309;BME280;8772;42.804;23.426;2023-05-09T10:28:22;73206.59;;;-140.58;57.22
17309;BME280;8772;42.804;23.426;2023-05-09T10:30:57;73237.34;;;-140.58;57.99
17309;BME280;8772;42.804;23.426;2023-05-09T10:33:30;73235.31;;;-140.58;57.19
17309;BME280;8772;42.804;23.426;2023-05-09T10:35:59;73218.91;;;-140.58;56.25
17309;BME280;8772;42.804;23.426;2023-05-09T10:38:27;73223.00;;;-140.58;57.97
17309;BME280;8772;42.804;23.426;2023-05-09T10:40:56;73216.84;;;-140.58;57.53
17309;BME280;8772;42.804;23.426;2023-05-09T10:43:24;73210.69;;;-140.58;57.07
17309;BME280;8772;42.804;23.426;2023-05-09T10:45:51;73255.81;;;-140.58;54.98
17309;BME280;8772;42.804;23.426;2023-05-09T10:48:21;73317.34;;;-140.58;58.73
17309;BME280;8772;42.804;23.426;2023-05-09T10:50:49;73321.44;;;-140.58;56.72
17309;BME280;8772;42.804;23.426;2023-05-09T10:53:16;73321.44;;;-140.58;57.49
17309;BME280;8772;42.804;23.426;2023-05-09T10:55:48;73333.75;;;-140.58;57.79
17309;BME280;8772;42.804;23.426;2023-05-09T10:58:20;73317.34;;;-140.58;57.82
17309;BME280;8772;42.804;23.426;2023-05-09T11:00:49;73305.03;;;-140.58;59.09
17309;BME280;8772;42.804;23.426;2023-05-09T11:03:16;73313.25;;;-140.58;55.60
17309;BME280;8772;42.804;23.426;2023-05-09T11:05:47;73331.69;;;-140.58;57.11
17309;BME280;8772;42.804;23.426;2023-05-09T11:08:20;73360.41;;;-140.58;59.08
17309;BME280;8772;42.804;23.426;2023-05-09T11:10:48;73380.94;;;-140.58;59.32
17309;BME280;8772;42.804;23.426;2023-05-09T11:13:19;73391.19;;;-140.58;59.19
17309;BME280;8772;42.804;23.426;2023-05-09T11:16:03;73385.03;;;-140.58;64.15
17309;BME280;8772;42.804;23.426;2023-05-09T11:18:31;73382.97;;;-140.58;59.55
17309;BME280;8772;42.804;23.426;2023-05-09T11:21:06;73374.78;;;-140.58;62.09
17309;BME280;8772;42.804;23.426;2023-05-09T11:23:33;73385.03;;;-140.58;60.84
17309;BME280;8772;42.804;23.426;2023-05-09T11:26:04;73438.38;;;-140.58;61.00
17309;BME280;8772;42.804;23.426;2023-05-09T11:28:33;73473.25;;;-140.58;61.84
17309;BME280;8772;42.804;23.426;2023-05-09T11:31:12;73491.69;;;-140.58;62.81
17309;BME280;8772;42.804;23.426;2023-05-09T11:33:40;73508.09;;;-140.58;63.22
17309;BME280;8772;42.804;23.426;2023-05-09T11:36:16;73512.22;;;-140.58;65.18
17309;BME280;8772;42.804;23.426;2023-05-09T11:38:45;73497.84;;;-140.58;63.80
17309;BME280;8772;42.804;23.426;2023-05-09T11:41:12;73501.97;;;-140.58;64.36
17309;BME280;8772;42.804;23.426;2023-05-09T11:43:41;73506.06;;;-140.58;66.46
17309;BME280;8772;42.804;23.426;2023-05-09T11:46:08;73528.63;;;-140.58;64.64
17309;BME280;8772;42.804;23.426;2023-05-09T11:48:39;73571.69;;;-140.58;65.63
17309;BME280;8772;42.804;23.426;2023-05-09T11:51:06;73577.84;;;-140.58;67.55
17309;BME280;8772;42.804;23.426;2023-05-09T11:53:39;73577.84;;;-140.58;66.85
17309;BME280;8772;42.804;23.426;2023-05-09T11:56:11;73563.50;;;-140.58;67.66
17309;BME280;8772;42.804;23.426;2023-05-09T11:58:38;73540.94;;;-140.58;68.08
17309;BME280;8772;42.804;23.426;2023-05-09T12:01:06;73547.09;;;-140.58;65.72
17309;BME280;8772;42.804;23.426;2023-05-09T12:03:33;73542.97;;;-140.58;65.76
17309;BME280;8772;42.804;23.426;2023-05-09T12:06:00;73540.94;;;-140.58;66.05
17309;BME280;8772;42.804;23.426;2023-05-09T12:08:28;73559.38;;;-140.58;65.51
17309;BME280;8772;42.804;23.426;2023-05-09T12:11:07;73567.59;;;-140.58;66.33
17309;BME280;8772;42.804;23.426;2023-05-09T12:13:34;73555.28;;;-140.58;66.40
17309;BME280;8772;42.804;23.426;2023-05-09T12:16:01;73559.38;;;-140.58;67.02
17309;BME280;8772;42.804;23.426;2023-05-09T12:18:28;73567.59;;;-140.58;65.79
17309;BME280;8772;42.804;23.426;2023-05-09T12:20:55;73549.13;;;-140.58;65.07
17309;BME280;8772;42.804;23.426;2023-05-09T12:23:22;73571.69;;;-140.58;66.23
17309;BME280;8772;42.804;23.426;2023-05-09T12:25:52;73542.97;;;-140.58;66.45
17309;BME280;8772;42.804;23.426;2023-05-09T12:28:21;73569.66;;;-140.58;66.04
17309;BME280;8772;42.804;23.426;2023-05-09T12:30:49;73551.19;;;-140.58;67.10
17309;BME280;8772;42.804;23.426;2023-05-09T12:33:17;73588.09;;;-140.58;64.99
17309;BME280;8772;42.804;23.426;2023-05-09T12:35:44;73620.94;;;-140.58;67.38
17309;BME280;8772;42.804;23.426;2023-05-09T12:38:13;73612.72;;;-140.58;68.39
17309;BME280;8772;42.804;23.426;2023-05-09T12:40:40;73606.56;;;-140.58;66.28
17309;BME280;8772;42.804;23.426;2023-05-09T12:43:08;73596.31;;;-140.58;67.51
17309;BME280;8772;42.804;23.426;2023-05-09T12:45:39;73594.25;;;-140.58;69.27
17309;BME280;8772;42.804;23.426;2023-05-09T12:48:07;73612.72;;;-140.58;69.10